createdAt,value
2023-10-23T04:31:23.142Z,11.50
2023-10-23T04:34:06.027Z,11.40
2023-10-23T04:39:35.505Z,11.40
2023-10-23T04:42:05.164Z,11.60
2023-10-23T04:44:46.383Z,11.50
2023-10-23T04:47:36.911Z,11.40
2023-10-23T04:50:25.930Z,11.30
2023-10-23T04:53:05.009Z,11.30
2023-10-23T04:55:57.086Z,11.30
2023-10-23T04:58:24.408Z,11.40
2023-10-23T05:00:57.045Z,11.30
2023-10-23T05:03:41.088Z,11.60
2023-10-23T05:06:24.814Z,11.30
2023-10-23T05:09:34.856Z,10.40
2023-10-23T05:12:12.867Z,11.70
2023-10-23T05:17:54.745Z,11.30
2023-10-23T05:20:22.173Z,11.30
2023-10-23T05:22:56.188Z,11.30
2023-10-23T05:25:25.636Z,11.40
2023-10-23T05:28:00.626Z,11.30
2023-10-23T05:30:32.880Z,11.10
2023-10-23T05:33:05.392Z,11.30
2023-10-23T05:35:51.543Z,11.70
2023-10-23T05:38:33.473Z,11.20
2023-10-23T05:41:03.797Z,11.40
2023-10-23T05:43:30.845Z,11.20
2023-10-23T05:46:10.320Z,11.30
2023-10-23T05:48:37.888Z,11.20
2023-10-23T05:51:06.813Z,11.20
2023-10-23T05:53:35.854Z,11.20
2023-10-23T05:56:10.723Z,11.20
2023-10-23T05:58:39.930Z,11.20
2023-10-23T06:01:08.858Z,11.40
2023-10-23T06:03:36.492Z,11.20
2023-10-23T06:06:03.802Z,11.20
2023-10-23T06:08:30.880Z,11.20
2023-10-23T06:10:57.654Z,11.20
2023-10-23T06:13:24.600Z,11.30
2023-10-23T06:15:52.601Z,11.40
2023-10-23T06:18:20.858Z,11.30
2023-10-23T06:20:47.636Z,11.30
2023-10-23T06:23:14.332Z,11.30
2023-10-23T06:25:41.293Z,11.30
2023-10-23T06:28:11.414Z,11.60
2023-10-23T06:30:38.445Z,11.00
2023-10-23T06:33:05.227Z,12.40
2023-10-23T06:35:35.240Z,11.40
2023-10-23T06:38:02.028Z,11.50
2023-10-23T06:40:28.875Z,11.70
2023-10-23T06:42:55.620Z,11.50
2023-10-23T06:45:22.498Z,11.50
2023-10-23T06:47:50.427Z,11.60
2023-10-23T06:50:18.321Z,11.60
2023-10-23T06:52:46.354Z,11.60
2023-10-23T06:55:13.957Z,11.60
2023-10-23T06:57:40.764Z,11.70
2023-10-23T07:00:08.593Z,11.50
2023-10-23T07:02:39.175Z,11.70
2023-10-23T07:05:06.493Z,11.40
2023-10-23T07:07:33.482Z,11.80
2023-10-23T07:10:21.765Z,11.80
2023-10-23T07:12:51.837Z,11.80
2023-10-23T07:15:23.520Z,12.00
2023-10-23T07:18:24.351Z,11.90
2023-10-23T07:21:24.854Z,11.90
2023-10-23T07:30:33.499Z,11.90
2023-10-23T07:34:31.223Z,12.00
2023-10-23T08:03:51.907Z,12.30
2023-10-23T08:06:46.528Z,12.80
2023-10-23T08:09:45.464Z,12.40
2023-10-23T08:15:41.126Z,12.40
2023-10-23T08:18:30.171Z,12.40
2023-10-23T08:21:59.428Z,12.20
2023-10-23T08:24:57.895Z,12.40
2023-10-23T08:27:27.097Z,12.50
2023-10-23T08:30:26.071Z,12.40
2023-10-23T08:36:48.596Z,12.70
2023-10-23T08:39:15.468Z,12.70
2023-10-23T08:42:25.524Z,12.60
2023-10-23T09:22:27.684Z,12.80
2023-10-23T09:29:30.465Z,12.80
2023-10-23T09:32:06.379Z,13.00
2023-10-23T09:40:06.183Z,13.20
2023-10-23T09:43:34.522Z,12.70
2023-10-23T09:58:13.397Z,13.40
2023-10-23T10:02:03.658Z,13.40
2023-10-23T10:05:01.809Z,13.50
2023-10-23T10:08:08.046Z,13.50
2023-10-23T10:14:12.191Z,13.60
2023-10-23T10:14:14.919Z,13.60
2023-10-23T10:20:49.207Z,13.60
2023-10-23T10:23:20.687Z,13.70
2023-10-23T10:25:48.160Z,13.40
2023-10-23T10:28:15.910Z,13.60
2023-10-23T10:30:51.818Z,13.40
2023-10-23T10:34:26.903Z,13.60
2023-10-23T10:36:12.895Z,13.60
2023-10-23T10:38:39.727Z,13.60
2023-10-23T10:41:16.452Z,13.60
2023-10-23T10:43:51.387Z,13.70
2023-10-23T10:46:30.165Z,13.70
2023-10-23T10:48:57.490Z,13.70
2023-10-23T10:51:27.291Z,13.70
2023-10-23T10:54:04.725Z,13.90
2023-10-23T10:56:39.281Z,13.90
2023-10-23T10:59:06.765Z,13.80
2023-10-23T11:01:34.466Z,13.80
2023-10-23T11:04:02.637Z,13.80
2023-10-23T11:06:30.858Z,13.80
2023-10-23T11:08:59.717Z,13.80
2023-10-23T11:11:28.267Z,13.80
2023-10-23T11:13:55.688Z,13.80
2023-10-23T11:16:22.611Z,13.80
2023-10-23T11:18:49.501Z,13.80
2023-10-23T11:21:23.148Z,13.90
2023-10-23T11:23:53.005Z,13.90
2023-10-23T11:26:19.762Z,13.90
2023-10-23T11:28:46.614Z,13.90
2023-10-23T11:31:22.701Z,14.00
2023-10-23T11:33:56.352Z,14.10
2023-10-23T11:36:37.227Z,14.60
2023-10-23T11:39:14.673Z,14.10
2023-10-23T11:41:41.655Z,14.10
2023-10-23T11:44:42.525Z,14.10
2023-10-23T11:47:17.254Z,14.60
2023-10-23T11:49:56.991Z,14.20
2023-10-23T11:52:23.921Z,13.90
2023-10-23T11:54:50.770Z,14.40
2023-10-23T11:57:17.967Z,14.30
2023-10-23T11:59:51.369Z,14.30
2023-10-23T12:02:21.254Z,14.30
2023-10-23T12:09:08.912Z,14.40
2023-10-23T12:11:39.701Z,14.00
2023-10-23T12:14:20.536Z,14.40
2023-10-23T12:16:47.460Z,14.30
2023-10-23T12:19:14.266Z,14.50
2023-10-23T12:21:41.114Z,14.30
2023-10-23T12:24:08.753Z,14.30
2023-10-23T12:26:35.509Z,14.40
2023-10-23T12:29:06.261Z,14.40
2023-10-23T12:32:01.599Z,14.30
2023-10-23T12:34:21.324Z,14.40
2023-10-23T12:36:48.474Z,14.40
2023-10-23T12:39:15.308Z,14.60
2023-10-23T12:41:42.026Z,14.40
2023-10-23T12:44:08.737Z,14.40
2023-10-23T12:46:35.640Z,14.50
2023-10-23T12:49:02.989Z,14.50
2023-10-23T12:51:30.044Z,14.50
2023-10-23T12:53:56.927Z,14.60
2023-10-23T12:56:23.730Z,14.60
2023-10-23T12:58:58.942Z,14.70
2023-10-23T13:01:25.958Z,14.70
2023-10-23T13:03:52.836Z,15.10
2023-10-23T13:06:19.633Z,14.80
2023-10-23T13:08:46.659Z,14.80
2023-10-23T13:11:13.530Z,14.90
2023-10-23T13:13:40.241Z,14.90
2023-10-23T13:16:07.047Z,15.00
2023-10-23T13:18:34.090Z,15.00
2023-10-23T13:21:30.089Z,15.10
2023-10-23T13:23:51.395Z,15.50
2023-10-23T13:26:18.354Z,15.20
2023-10-23T13:28:47.935Z,15.30
2023-10-23T13:31:16.504Z,15.30
2023-10-23T13:33:43.349Z,15.40
2023-10-23T13:36:10.853Z,15.40
2023-10-23T13:38:38.679Z,15.40
2023-10-23T13:41:07.045Z,15.40
2023-10-23T13:43:34.378Z,15.40
2023-10-23T13:46:01.928Z,15.50
2023-10-23T13:48:28.668Z,15.50
2023-10-23T13:50:55.565Z,15.90
2023-10-23T13:53:24.005Z,15.50
2023-10-23T13:55:52.576Z,15.50
2023-10-23T13:58:19.857Z,15.50
2023-10-23T14:00:48.638Z,15.50
2023-10-23T14:03:15.546Z,15.50
2023-10-23T14:05:43.186Z,15.50
2023-10-23T14:08:10.056Z,15.50
2023-10-23T14:10:37.223Z,15.50
2023-10-23T14:13:04.203Z,15.50
2023-10-23T14:15:30.985Z,15.70
2023-10-23T14:17:57.754Z,15.50
2023-10-23T14:20:26.627Z,15.50
2023-10-23T14:22:54.815Z,15.50
2023-10-23T14:25:21.848Z,15.50
2023-10-23T14:27:48.945Z,15.40
2023-10-23T14:30:15.771Z,15.40
2023-10-23T14:32:43.454Z,15.40
2023-10-23T14:35:11.238Z,15.30
2023-10-23T14:37:38.301Z,15.30
2023-10-23T14:40:06.806Z,15.30
2023-10-23T14:42:33.666Z,15.30
2023-10-23T14:45:00.420Z,15.30
2023-10-23T14:47:27.261Z,15.30
2023-10-23T14:49:55.012Z,15.20
2023-10-23T14:52:21.907Z,15.20
2023-10-23T14:54:48.722Z,15.20
2023-10-23T14:57:22.151Z,15.50
2023-10-23T14:59:50.204Z,15.30
2023-10-23T15:02:23.329Z,14.70
2023-10-23T15:05:15.233Z,15.20
2023-10-23T15:08:08.276Z,15.10
2023-10-23T15:10:47.863Z,15.10
2023-10-23T15:13:17.371Z,14.80
2023-10-23T15:15:49.314Z,15.20
2023-10-23T15:18:16.517Z,14.80
2023-10-23T15:20:43.401Z,15.00
2023-10-23T15:23:13.277Z,15.20
2023-10-23T15:25:43.225Z,14.70
2023-10-23T15:28:10.036Z,15.10
2023-10-23T15:30:36.990Z,15.20
2023-10-23T15:33:07.992Z,15.00
2023-10-23T15:35:37.383Z,15.00
2023-10-23T15:38:06.437Z,14.90
2023-10-23T15:40:41.615Z,15.10
2023-10-23T15:43:16.046Z,15.30
2023-10-23T15:45:45.536Z,15.30
2023-10-23T15:48:21.394Z,14.60
2023-10-23T15:50:52.407Z,15.30
2023-10-23T15:53:23.996Z,14.90
2023-10-23T15:55:51.148Z,14.90
2023-10-23T15:58:23.894Z,15.70
2023-10-23T16:00:55.257Z,13.60
2023-10-23T16:03:28.013Z,15.00
2023-10-23T16:05:55.203Z,14.40
2023-10-23T16:08:22.285Z,15.00
2023-10-23T16:10:54.553Z,14.80
2023-10-23T16:13:39.078Z,14.80
2023-10-23T16:16:16.616Z,14.70
2023-10-23T16:18:45.537Z,15.00
2023-10-23T16:59:11.359Z,14.50
2023-10-23T17:07:03.407Z,14.50
2023-10-23T19:20:34.201Z,14.80
2023-10-23T19:23:10.073Z,14.80
2023-10-23T19:27:47.397Z,15.00
2023-10-23T20:03:55.979Z,14.70
2023-10-23T20:06:44.372Z,15.00
2023-10-23T20:09:45.300Z,14.70
2023-10-23T20:13:26.085Z,15.20
2023-10-23T20:19:51.227Z,14.80
2023-10-23T20:22:52.002Z,14.80
2023-10-23T20:25:31.968Z,14.90
2023-10-23T20:28:55.652Z,14.80
2023-10-23T20:55:43.794Z,15.00
2023-10-23T20:58:11.142Z,15.20
2023-10-23T21:00:43.710Z,14.90
2023-10-23T21:03:21.901Z,15.00
2023-10-23T21:06:03.516Z,15.40
2023-10-23T21:08:49.696Z,15.40
2023-10-23T21:11:47.353Z,15.10
2023-10-23T21:14:22.473Z,15.20
2023-10-23T21:16:57.134Z,15.00
2023-10-23T21:19:24.246Z,15.40
2023-10-23T21:21:52.454Z,15.00
2023-10-23T21:24:19.438Z,15.00
2023-10-23T21:27:13.045Z,14.60
2023-10-23T21:29:43.397Z,15.00
2023-10-23T21:32:22.494Z,15.10
2023-10-23T21:34:51.990Z,15.00
2023-10-23T21:37:19.074Z,15.50
2023-10-23T21:39:46.115Z,15.00
2023-10-23T21:42:12.977Z,15.30
2023-10-23T21:44:40.354Z,15.50
2023-10-23T21:47:10.236Z,15.40
2023-10-23T21:49:50.534Z,15.00
2023-10-23T21:53:07.184Z,15.60
2023-10-23T21:56:09.032Z,15.00
2023-10-23T22:04:45.618Z,14.60
2023-10-23T22:34:13.635Z,14.90
2023-10-23T23:46:22.457Z,14.70
2023-10-23T23:50:08.859Z,14.70
